Time;durP1;ratioP1;P1;durP2;ratioP2;P2;SDS_P1;SDS_P2;PMS_P1;PMS_P2;Temp;Humidity;BMP_temperature;BMP_pressure;BME280_temperature;BME280_humidity;BME280_pressure;Samples;Min_cycle;Max_cycle;Signal;HPM_P1;HPM_P2
2022/04/07 00:00:51;;;;;;;5.20;3.30;;;9.40;99.90;;;;;;5015942;28;20474;-78
2022/04/07 00:03:18;;;;;;;4.13;3.20;;;9.40;99.90;;;;;;5020381;28;20464;-80
2022/04/07 00:05:45;;;;;;;8.63;3.80;;;9.40;99.90;;;;;;5004719;28;20482;-79
2022/04/07 00:08:13;;;;;;;4.23;3.07;;;9.40;99.90;;;;;;5017510;28;20454;-79
2022/04/07 00:10:40;;;;;;;5.07;3.50;;;9.40;99.90;;;;;;5004697;28;20487;-79
2022/04/07 00:13:07;;;;;;;4.50;3.40;;;9.40;99.90;;;;;;5000001;28;20451;-80
2022/04/07 00:15:34;;;;;;;3.87;2.70;;;9.30;99.90;;;;;;5014558;28;20459;-79
2022/04/07 00:18:00;;;;;;;4.50;3.07;;;9.30;99.90;;;;;;5006224;28;20463;-80
2022/04/07 00:20:29;;;;;;;5.50;2.70;;;9.30;99.90;;;;;;5001477;28;20581;-81
2022/04/07 00:22:57;;;;;;;6.57;2.70;;;9.20;99.90;;;;;;5000326;28;20470;-80
2022/04/07 00:25:26;;;;;;;5.13;3.00;;;9.20;99.90;;;;;;5013574;28;20859;-79
2022/04/07 00:27:53;;;;;;;4.17;2.10;;;9.20;99.90;;;;;;5008102;28;20460;-80
2022/04/07 00:30:21;;;;;;;5.13;2.23;;;9.20;99.90;;;;;;4999806;28;20864;-80
2022/04/07 00:32:48;;;;;;;4.03;2.10;;;9.10;99.90;;;;;;5000032;28;21015;-81
2022/04/07 00:35:15;;;;;;;5.23;2.37;;;9.10;99.90;;;;;;5008257;28;20452;-80
2022/04/07 00:37:42;;;;;;;3.07;2.00;;;9.00;99.90;;;;;;5007904;28;20457;-81
2022/04/07 00:40:11;;;;;;;5.00;2.37;;;9.00;99.90;;;;;;5013355;28;21022;-79
2022/04/07 00:42:46;;;;;;;2.33;1.87;;;9.10;99.90;;;;;;5019642;28;20458;-80
2022/04/07 00:45:13;;;;;;;4.90;1.93;;;9.00;99.90;;;;;;5004384;28;20524;-81
2022/04/07 00:47:40;;;;;;;4.67;2.23;;;9.00;99.90;;;;;;5010058;28;20457;-79
2022/04/07 00:50:07;;;;;;;3.17;2.07;;;9.10;99.90;;;;;;5005589;28;20474;-80
2022/04/07 00:52:35;;;;;;;5.40;1.87;;;9.10;99.90;;;;;;4999926;28;20459;-79
2022/04/07 00:55:02;;;;;;;2.70;1.73;;;9.20;99.90;;;;;;5007144;28;20453;-79
2022/04/07 00:57:30;;;;;;;3.10;1.83;;;9.20;99.90;;;;;;5009310;28;20462;-81
2022/04/07 00:59:59;;;;;;;2.17;1.37;;;9.20;99.90;;;;;;5012631;28;20477;-80
2022/04/07 01:02:26;;;;;;;2.60;1.37;;;9.30;99.90;;;;;;5018731;28;20456;-80
2022/04/07 01:04:53;;;;;;;4.80;1.70;;;9.30;99.90;;;;;;5016583;28;20541;-81
2022/04/07 01:07:20;;;;;;;3.60;1.70;;;9.30;99.90;;;;;;5010530;28;20541;-82
2022/04/07 01:09:47;;;;;;;3.40;1.47;;;9.20;99.90;;;;;;5006433;28;20471;-81
2022/04/07 01:12:14;;;;;;;3.60;1.80;;;9.10;99.90;;;;;;5018959;28;20451;-80
2022/04/07 01:14:54;;;;;;;4.70;2.57;;;9.10;99.90;;;;;;5015034;28;20839;-79
2022/04/07 01:17:22;;;;;;;4.07;1.90;;;9.00;99.90;;;;;;5018434;28;20969;-80
2022/04/07 01:19:49;;;;;;;4.67;1.83;;;9.10;99.90;;;;;;5008029;28;20480;-80
2022/04/07 01:22:16;;;;;;;3.50;1.93;;;9.10;99.90;;;;;;4999900;28;20824;-80
2022/04/07 01:24:44;;;;;;;3.97;1.60;;;9.10;99.90;;;;;;4998333;28;20455;-80
2022/04/07 01:27:12;;;;;;;3.37;1.93;;;9.10;99.90;;;;;;5000116;28;20497;-79
2022/04/07 01:29:39;;;;;;;3.53;1.40;;;9.10;99.90;;;;;;5015002;28;20487;-80
2022/04/07 01:32:11;;;;;;;3.30;1.73;;;9.10;99.90;;;;;;5012488;28;20464;-80
2022/04/07 01:34:39;;;;;;;2.70;1.50;;;9.20;99.90;;;;;;5007640;28;20451;-80
2022/04/07 01:37:07;;;;;;;3.13;1.53;;;9.30;99.90;;;;;;5011012;28;20452;-80
2022/04/07 01:39:36;;;;;;;2.43;1.50;;;9.30;99.90;;;;;;5004162;28;20474;-81
2022/04/07 01:42:05;;;;;;;4.47;2.00;;;9.40;99.90;;;;;;4998290;28;20952;-80
2022/04/07 01:44:36;;;;;;;4.90;1.60;;;9.40;99.90;;;;;;5000053;28;20471;-81
2022/04/07 01:47:03;;;;;;;4.83;2.50;;;9.40;99.90;;;;;;4998683;28;20490;-80
2022/04/07 01:49:31;;;;;;;4.20;1.70;;;9.50;99.90;;;;;;5007840;28;20482;-83
2022/04/07 01:52:02;;;;;;;4.83;1.33;;;9.50;99.90;;;;;;5019411;28;20471;-80
2022/04/07 01:54:29;;;;;;;4.00;1.17;;;9.60;99.90;;;;;;5005311;28;20968;-80
2022/04/07 01:56:57;;;;;;;3.00;1.30;;;9.60;99.90;;;;;;5017998;28;20443;-80
2022/04/07 01:59:26;;;;;;;5.80;1.70;;;9.70;99.90;;;;;;5012512;28;20480;-80
2022/04/07 02:01:53;;;;;;;3.67;1.40;;;9.70;99.90;;;;;;5019762;28;20469;-81
2022/04/07 02:04:19;;;;;;;4.83;1.50;;;9.70;99.90;;;;;;5006601;28;20455;-80
2022/04/07 02:06:46;;;;;;;2.80;1.23;;;9.80;99.90;;;;;;5019076;28;20491;-81
2022/04/07 02:09:13;;;;;;;2.73;1.13;;;9.80;99.90;;;;;;5007648;28;20536;-78
2022/04/07 02:11:41;;;;;;;3.80;1.57;;;9.90;99.90;;;;;;5017814;28;20457;-80
2022/04/07 02:14:07;;;;;;;3.60;1.57;;;9.90;99.90;;;;;;5002777;28;20541;-81
2022/04/07 02:16:36;;;;;;;2.27;0.83;;;9.90;99.90;;;;;;4998994;28;20532;-81
2022/04/07 02:19:02;;;;;;;3.00;1.20;;;9.90;99.90;;;;;;5013421;28;20505;-80
2022/04/07 02:21:29;;;;;;;2.70;1.07;;;9.90;99.90;;;;;;5019051;28;20451;-80
2022/04/07 02:23:56;;;;;;;3.80;1.47;;;9.90;99.90;;;;;;5008352;28;20461;-80
2022/04/07 02:26:23;;;;;;;3.70;1.40;;;9.70;99.90;;;;;;4999663;28;21008;-79
2022/04/07 02:28:50;;;;;;;3.47;1.30;;;9.60;99.90;;;;;;5000997;28;20478;-80
2022/04/07 02:31:17;;;;;;;2.63;1.53;;;9.60;99.90;;;;;;5002207;28;20856;-79
2022/04/07 02:33:46;;;;;;;2.23;1.27;;;9.50;99.90;;;;;;5016576;28;20951;-78
2022/04/07 02:36:13;;;;;;;2.50;1.40;;;9.50;99.90;;;;;;4999732;28;20457;-82
2022/04/07 02:38:40;;;;;;;3.93;1.50;;;9.50;99.90;;;;;;5001252;28;20460;-80
2022/04/07 02:41:07;;;;;;;3.47;1.90;;;9.50;99.90;;;;;;4999401;28;20462;-80
2022/04/07 02:43:34;;;;;;;4.67;1.90;;;9.50;99.90;;;;;;5014831;28;20454;-81
2022/04/07 02:46:00;;;;;;;4.43;2.03;;;9.60;99.90;;;;;;5000648;28;20485;-82
2022/04/07 02:48:27;;;;;;;13.77;2.13;;;9.50;99.90;;;;;;5012621;28;20460;-81
2022/04/07 02:50:55;;;;;;;3.00;1.47;;;9.50;99.90;;;;;;4998414;28;20538;-82
2022/04/07 02:53:24;;;;;;;2.80;1.63;;;9.40;99.90;;;;;;5012462;28;20461;-81
2022/04/07 02:55:51;;;;;;;2.10;1.70;;;9.30;99.90;;;;;;5011261;28;20812;-81
2022/04/07 02:58:18;;;;;;;4.20;1.80;;;9.30;99.90;;;;;;5018365;28;20450;-80
2022/04/07 03:00:45;;;;;;;3.07;1.70;;;9.30;99.90;;;;;;4999182;28;20490;-82
2022/04/07 03:03:12;;;;;;;2.53;1.60;;;9.30;99.90;;;;;;5014902;28;20465;-81
2022/04/07 03:05:38;;;;;;;3.17;1.50;;;9.20;99.90;;;;;;5000040;28;20457;-81
2022/04/07 03:08:07;;;;;;;2.83;2.00;;;9.20;99.90;;;;;;5007523;28;20450;-80
2022/04/07 03:10:34;;;;;;;3.73;1.50;;;9.20;99.90;;;;;;5001450;28;20493;-81
2022/04/07 03:13:01;;;;;;;2.80;1.93;;;9.20;99.90;;;;;;5006023;28;20455;-79
2022/04/07 03:15:27;;;;;;;6.37;2.40;;;9.20;99.90;;;;;;5016916;28;20454;-80
2022/04/07 03:17:54;;;;;;;4.87;2.40;;;9.20;99.90;;;;;;5008982;28;20451;-82
2022/04/07 03:20:21;;;;;;;4.03;2.07;;;9.20;99.90;;;;;;4997889;28;20474;-82
2022/04/07 03:22:48;;;;;;;3.70;1.70;;;9.10;99.90;;;;;;5009947;28;20489;-84
2022/04/07 03:25:16;;;;;;;3.07;1.90;;;9.20;99.90;;;;;;5007575;28;20454;-82
2022/04/07 03:27:43;;;;;;;2.30;1.50;;;9.20;99.90;;;;;;5016661;28;21014;-80
2022/04/07 03:30:11;;;;;;;4.03;1.70;;;9.20;99.90;;;;;;5017134;28;20494;-78
2022/04/07 03:32:38;;;;;;;4.47;1.70;;;9.30;99.90;;;;;;5007495;28;20829;-78
2022/04/07 03:35:05;;;;;;;5.90;1.43;;;9.30;99.90;;;;;;5009303;28;20487;-80
2022/04/07 03:37:32;;;;;;;2.50;1.23;;;9.40;99.90;;;;;;5011015;28;20450;-81
2022/04/07 03:39:59;;;;;;;5.63;2.70;;;9.40;99.90;;;;;;5016114;28;20479;-83
2022/04/07 03:42:27;;;;;;;3.83;1.60;;;9.50;99.90;;;;;;5013606;28;20484;-78
2022/04/07 03:44:54;;;;;;;5.80;1.73;;;9.50;99.90;;;;;;5015118;28;20457;-81
2022/04/07 03:47:20;;;;;;;3.43;1.40;;;9.60;99.90;;;;;;5003766;28;20487;-81
2022/04/07 03:49:48;;;;;;;6.67;1.40;;;9.70;99.90;;;;;;4996265;28;20462;-81
2022/04/07 03:52:15;;;;;;;3.17;1.50;;;9.80;99.90;;;;;;4999505;28;20461;-80
2022/04/07 03:54:42;;;;;;;2.20;1.20;;;9.80;99.90;;;;;;5015744;28;21032;-80
2022/04/07 03:57:09;;;;;;;3.87;1.20;;;9.80;99.90;;;;;;5006834;28;20988;-81
2022/04/07 03:59:38;;;;;;;2.97;1.20;;;9.90;99.90;;;;;;4997965;28;21060;-79
2022/04/07 04:02:06;;;;;;;4.50;1.47;;;9.90;99.90;;;;;;5002359;28;20462;-79
2022/04/07 04:04:33;;;;;;;4.07;1.63;;;9.90;99.90;;;;;;4994628;28;20457;-78
2022/04/07 04:07:00;;;;;;;3.90;1.30;;;9.90;99.90;;;;;;5015263;28;21026;-80
2022/04/07 04:09:27;;;;;;;3.80;1.20;;;9.90;99.90;;;;;;5009225;28;20478;-80
2022/04/07 04:11:54;;;;;;;3.37;1.20;;;9.90;99.90;;;;;;5014190;28;20560;-81
2022/04/07 04:14:21;;;;;;;4.40;1.60;;;9.90;99.90;;;;;;5015037;28;20451;-78
2022/04/07 04:16:49;;;;;;;4.87;1.37;;;9.90;99.90;;;;;;5013153;28;20450;-80
2022/04/07 04:19:16;;;;;;;4.13;1.37;;;9.80;99.90;;;;;;5021072;28;20473;-79
2022/04/07 04:21:43;;;;;;;5.17;1.30;;;9.80;99.90;;;;;;5010040;28;20966;-80
2022/04/07 04:24:11;;;;;;;5.70;1.30;;;9.80;99.90;;;;;;5020952;28;20459;-80
2022/04/07 04:26:37;;;;;;;4.60;1.33;;;9.90;99.90;;;;;;5007332;28;20511;-79
2022/04/07 04:29:04;;;;;;;4.23;1.40;;;10.00;99.90;;;;;;5006322;28;20485;-78
2022/04/07 04:31:31;;;;;;;3.30;1.43;;;10.00;99.90;;;;;;5018610;28;20447;-78
2022/04/07 04:33:59;;;;;;;4.00;1.10;;;10.10;99.90;;;;;;5003148;28;20511;-78
2022/04/07 04:36:26;;;;;;;2.10;0.90;;;10.10;99.90;;;;;;5022061;28;20456;-79
2022/04/07 04:38:53;;;;;;;5.27;2.07;;;10.20;99.90;;;;;;5010014;28;20471;-79
2022/04/07 04:41:20;;;;;;;4.53;1.43;;;10.20;99.90;;;;;;5000144;28;20450;-80
2022/04/07 04:43:47;;;;;;;4.13;1.17;;;10.30;99.90;;;;;;5001914;28;20582;-80
2022/04/07 04:46:14;;;;;;;4.00;0.87;;;10.30;99.90;;;;;;4994667;28;20498;-80
2022/04/07 04:48:40;;;;;;;6.27;1.50;;;10.30;99.90;;;;;;5011828;28;20501;-79
2022/04/07 04:51:09;;;;;;;4.00;1.40;;;10.30;99.90;;;;;;5017316;28;20541;-79
2022/04/07 04:53:35;;;;;;;4.83;1.30;;;10.30;99.90;;;;;;4999571;28;20457;-80
2022/04/07 04:56:02;;;;;;;4.63;1.60;;;10.30;99.90;;;;;;5000872;28;21003;-81
2022/04/07 04:58:29;;;;;;;5.00;1.40;;;10.00;99.90;;;;;;5000301;28;20458;-81
2022/04/07 05:00:57;;;;;;;3.33;1.90;;;9.70;99.90;;;;;;5018447;28;20452;-82
2022/04/07 05:03:24;;;;;;;2.30;1.70;;;9.60;99.90;;;;;;5018254;28;20459;-81
2022/04/07 05:05:51;;;;;;;5.03;2.00;;;9.50;99.90;;;;;;5020519;28;20458;-81
2022/04/07 05:08:20;;;;;;;3.17;2.70;;;9.40;99.90;;;;;;5006736;28;20492;-80
2022/04/07 05:10:47;;;;;;;5.63;2.93;;;9.40;99.90;;;;;;5008620;28;20476;-80
2022/04/07 05:13:14;;;;;;;4.77;3.53;;;9.40;99.90;;;;;;5012262;28;20450;-78
2022/04/07 05:15:40;;;;;;;3.30;2.30;;;9.30;99.90;;;;;;5015723;28;20460;-81
2022/04/07 05:18:07;;;;;;;3.93;3.30;;;9.30;99.90;;;;;;5017232;28;20830;-80
2022/04/07 05:20:35;;;;;;;5.10;4.60;;;9.20;99.90;;;;;;5002927;28;21031;-79
2022/04/07 05:23:02;;;;;;;5.10;4.07;;;9.20;99.90;;;;;;5016145;28;20461;-79
2022/04/07 05:25:30;;;;;;;7.30;4.50;;;9.20;99.90;;;;;;5015690;28;20554;-81
2022/04/07 05:27:57;;;;;;;4.00;2.80;;;9.30;99.90;;;;;;4996525;28;20482;-80
2022/04/07 05:30:24;;;;;;;5.60;3.87;;;9.30;99.90;;;;;;5004853;28;20475;-79
2022/04/07 05:32:51;;;;;;;6.00;3.40;;;9.30;99.90;;;;;;4997407;28;20468;-79
2022/04/07 05:35:17;;;;;;;4.23;2.70;;;9.30;99.90;;;;;;5000213;28;20543;-80
2022/04/07 05:37:44;;;;;;;6.23;3.47;;;9.30;99.90;;;;;;5015455;28;20453;-79
2022/04/07 05:40:13;;;;;;;5.87;3.60;;;9.30;99.90;;;;;;5005609;28;20475;-80
2022/04/07 05:42:41;;;;;;;5.10;2.70;;;9.30;99.90;;;;;;5010420;28;20996;-79
2022/04/07 05:45:09;;;;;;;3.87;3.00;;;9.30;99.90;;;;;;4995450;28;20471;-80
2022/04/07 05:47:40;;;;;;;9.87;5.47;;;9.30;99.90;;;;;;5015353;28;20481;-81
2022/04/07 05:50:07;;;;;;;3.80;2.60;;;9.30;99.90;;;;;;5005728;28;20529;-79
2022/04/07 05:52:34;;;;;;;4.80;3.50;;;9.30;99.90;;;;;;5010971;28;20443;-79
2022/04/07 05:55:01;;;;;;;5.33;3.07;;;9.30;99.90;;;;;;4995927;28;20466;-80
2022/04/07 05:57:30;;;;;;;4.57;2.70;;;9.30;99.90;;;;;;5015920;28;20962;-80
2022/04/07 06:00:04;;;;;;;3.60;2.20;;;9.40;99.90;;;;;;5006686;28;20473;-80
2022/04/07 06:02:32;;;;;;;3.03;2.03;;;9.40;99.90;;;;;;5016420;28;20462;-80
2022/04/07 06:04:58;;;;;;;3.20;2.50;;;9.40;99.90;;;;;;4999936;28;20451;-82
2022/04/07 06:07:25;;;;;;;3.23;2.80;;;9.50;99.90;;;;;;4997890;28;21038;-79
2022/04/07 06:09:52;;;;;;;4.80;4.33;;;9.60;99.90;;;;;;5005745;28;20478;-79
2022/04/07 06:12:19;;;;;;;4.47;2.37;;;9.70;99.90;;;;;;5018021;28;20537;-82
2022/04/07 06:14:46;;;;;;;3.50;1.97;;;9.70;99.90;;;;;;5016520;28;20455;-82
2022/04/07 06:17:14;;;;;;;7.90;2.50;;;9.70;99.90;;;;;;5018177;28;20449;-80
2022/04/07 06:19:41;;;;;;;4.77;2.43;;;9.60;99.90;;;;;;5011985;28;20474;-82
2022/04/07 06:22:08;;;;;;;4.83;3.00;;;9.60;99.90;;;;;;5008923;28;20465;-81
2022/04/07 06:24:35;;;;;;;4.43;2.07;;;9.60;99.90;;;;;;5015438;28;20994;-79
2022/04/07 06:27:03;;;;;;;3.27;2.70;;;9.50;99.90;;;;;;5015246;28;20566;-80
2022/04/07 06:29:29;;;;;;;3.07;2.13;;;9.40;99.90;;;;;;5010828;28;20488;-80
2022/04/07 06:31:56;;;;;;;5.83;2.33;;;9.40;99.90;;;;;;4996140;28;20455;-79
2022/04/07 06:34:24;;;;;;;2.97;2.47;;;9.40;99.90;;;;;;4995009;28;20813;-77
2022/04/07 06:36:51;;;;;;;4.47;2.27;;;9.40;99.90;;;;;;5000524;28;20450;-77
2022/04/07 06:39:18;;;;;;;1.90;1.47;;;9.40;99.90;;;;;;5010108;28;20866;-79
2022/04/07 06:41:45;;;;;;;2.80;1.80;;;9.40;99.90;;;;;;5001806;28;20545;-78
2022/04/07 06:44:11;;;;;;;2.80;2.10;;;9.40;99.90;;;;;;5012778;28;20453;-77
2022/04/07 06:46:38;;;;;;;9.43;4.40;;;9.50;99.90;;;;;;5012481;28;20464;-77
2022/04/07 06:49:05;;;;;;;3.20;2.00;;;9.50;99.90;;;;;;4999036;28;20479;-78
2022/04/07 06:51:33;;;;;;;5.47;3.90;;;9.50;99.90;;;;;;4998077;28;20453;-77
2022/04/07 06:54:00;;;;;;;2.53;1.37;;;9.40;99.90;;;;;;5013057;28;20456;-77
2022/04/07 06:56:27;;;;;;;2.63;1.40;;;9.40;99.90;;;;;;5010651;28;20451;-79
2022/04/07 06:58:54;;;;;;;3.07;1.43;;;9.50;99.90;;;;;;5008173;28;20472;-77
2022/04/07 07:01:21;;;;;;;3.17;1.60;;;9.60;99.90;;;;;;5012788;28;20460;-79
2022/04/07 07:03:48;;;;;;;2.53;1.10;;;9.60;99.90;;;;;;5014228;28;20547;-78
2022/04/07 07:06:15;;;;;;;2.30;1.60;;;9.70;99.90;;;;;;5018138;28;20458;-79
2022/04/07 07:08:46;;;;;;;3.83;1.80;;;9.70;99.90;;;;;;5017247;28;20492;-79
2022/04/07 07:11:14;;;;;;;2.53;1.50;;;9.80;99.90;;;;;;5012740;28;20791;-81
2022/04/07 07:13:41;;;;;;;2.77;1.63;;;9.80;99.90;;;;;;5010731;28;20478;-81
2022/04/07 07:16:07;;;;;;;2.50;1.77;;;9.80;99.90;;;;;;5010512;28;20466;-80
2022/04/07 07:18:34;;;;;;;3.73;1.50;;;9.70;99.90;;;;;;5013854;28;20457;-81
2022/04/07 07:21:01;;;;;;;2.27;1.60;;;9.70;99.90;;;;;;5019282;28;20454;-80
2022/04/07 07:23:28;;;;;;;4.10;1.80;;;9.70;99.90;;;;;;5015048;28;20449;-81
2022/04/07 07:25:59;;;;;;;7.07;1.67;;;9.70;99.90;;;;;;5007804;28;20448;-80
2022/04/07 07:28:25;;;;;;;3.93;1.73;;;9.70;99.90;;;;;;5005367;28;20489;-79
2022/04/07 07:30:55;;;;;;;2.70;1.30;;;9.60;99.90;;;;;;5006895;28;20490;-79
2022/04/07 07:33:22;;;;;;;2.40;1.40;;;9.60;99.90;;;;;;5009641;28;20507;-82
2022/04/07 07:35:49;;;;;;;2.63;1.10;;;9.60;99.90;;;;;;5002783;28;20469;-78
2022/04/07 07:38:15;;;;;;;2.60;1.20;;;9.50;99.90;;;;;;5007682;28;20962;-79
2022/04/07 07:40:42;;;;;;;2.63;1.30;;;9.50;99.90;;;;;;5003270;28;20555;-80
2022/04/07 07:43:10;;;;;;;6.30;1.43;;;9.40;99.90;;;;;;5014370;28;20463;-79
2022/04/07 07:45:37;;;;;;;2.43;1.40;;;9.40;99.90;;;;;;5014421;28;20466;-79
2022/04/07 07:48:04;;;;;;;3.10;1.50;;;9.50;99.90;;;;;;5002553;28;20494;-81
2022/04/07 07:50:31;;;;;;;1.80;1.10;;;9.40;99.90;;;;;;5006158;28;20484;-80
2022/04/07 07:52:58;;;;;;;5.30;1.30;;;9.40;99.90;;;;;;5015213;28;20831;-80
2022/04/07 07:55:25;;;;;;;3.60;1.50;;;9.40;99.90;;;;;;5006477;28;20850;-80
2022/04/07 07:57:52;;;;;;;3.33;1.43;;;9.40;99.90;;;;;;5007741;28;20460;-81
2022/04/07 08:00:23;;;;;;;3.20;1.40;;;9.50;99.90;;;;;;5008316;28;20494;-80
2022/04/07 08:02:50;;;;;;;5.30;1.57;;;9.60;99.90;;;;;;5006030;28;20470;-80
2022/04/07 08:05:17;;;;;;;2.00;1.17;;;9.60;99.90;;;;;;5008197;28;20463;-80
2022/04/07 08:07:44;;;;;;;2.30;1.30;;;9.60;99.90;;;;;;5011023;28;20493;-80
2022/04/07 08:10:11;;;;;;;2.90;1.73;;;9.60;99.90;;;;;;5011442;28;20864;-80
2022/04/07 08:12:39;;;;;;;3.30;1.60;;;9.50;99.90;;;;;;5008854;28;20475;-80
2022/04/07 08:15:07;;;;;;;3.73;1.33;;;9.50;99.90;;;;;;5007938;28;20478;-79
2022/04/07 08:17:35;;;;;;;3.40;1.27;;;9.40;99.90;;;;;;5006700;28;20462;-79
2022/04/07 08:20:03;;;;;;;7.00;1.87;;;9.30;99.90;;;;;;4996652;28;20521;-79
2022/04/07 08:22:30;;;;;;;2.30;1.30;;;9.30;99.90;;;;;;5005553;28;20462;-79
2022/04/07 08:24:57;;;;;;;2.80;1.27;;;9.40;99.90;;;;;;5015359;28;20877;-78
2022/04/07 08:27:24;;;;;;;3.37;1.40;;;9.50;99.90;;;;;;5019265;28;20493;-79
2022/04/07 08:29:51;;;;;;;3.93;1.57;;;9.60;99.90;;;;;;5012221;28;20590;-79
2022/04/07 08:32:18;;;;;;;2.67;1.30;;;9.70;99.90;;;;;;5014868;28;20466;-80
2022/04/07 08:34:47;;;;;;;2.47;1.03;;;9.80;99.90;;;;;;5013668;28;20550;-80
2022/04/07 08:37:13;;;;;;;2.80;1.30;;;9.90;99.90;;;;;;5006400;28;20529;-80
2022/04/07 08:39:40;;;;;;;2.40;1.30;;;10.00;99.90;;;;;;5011506;28;20491;-80
2022/04/07 08:42:08;;;;;;;2.50;1.27;;;10.00;99.90;;;;;;5016163;28;20553;-80
2022/04/07 08:44:34;;;;;;;2.83;1.30;;;10.00;99.90;;;;;;5016910;28;20470;-80
2022/04/07 08:47:02;;;;;;;4.07;1.40;;;10.00;99.90;;;;;;5013038;28;20459;-81
2022/04/07 08:49:31;;;;;;;3.80;1.10;;;10.00;99.90;;;;;;5010397;28;20494;-82
2022/04/07 08:52:00;;;;;;;3.93;1.40;;;10.00;99.90;;;;;;5014996;28;20447;-80
2022/04/07 08:54:27;;;;;;;2.13;1.10;;;10.00;99.90;;;;;;5011034;28;20486;-80
2022/04/07 08:56:57;;;;;;;3.67;1.37;;;9.90;99.90;;;;;;5006335;28;20455;-81
2022/04/07 08:59:23;;;;;;;1.83;1.10;;;9.90;99.90;;;;;;5009290;28;20477;-81
2022/04/07 09:01:50;;;;;;;1.97;0.90;;;9.90;99.90;;;;;;5016175;28;20462;-80
2022/04/07 09:04:22;;;;;;;2.20;1.20;;;10.00;99.90;;;;;;5006988;28;20550;-82
2022/04/07 09:06:49;;;;;;;2.07;1.13;;;10.10;99.90;;;;;;5013441;28;20468;-80
2022/04/07 09:09:20;;;;;;;1.90;1.10;;;10.10;99.90;;;;;;5017082;28;21060;-81
2022/04/07 09:11:47;;;;;;;5.47;1.20;;;10.10;99.90;;;;;;5014533;28;20515;-81
2022/04/07 09:14:14;;;;;;;2.57;1.00;;;10.10;99.90;;;;;;5010542;28;20470;-81
2022/04/07 09:16:41;;;;;;;1.90;1.20;;;10.10;99.90;;;;;;5010663;28;20472;-81
2022/04/07 09:19:09;;;;;;;1.70;1.20;;;10.20;99.90;;;;;;5012075;28;20479;-81
2022/04/07 09:21:36;;;;;;;2.67;1.67;;;10.20;99.90;;;;;;5014793;28;20464;-82
2022/04/07 09:24:07;;;;;;;2.03;1.10;;;10.30;99.90;;;;;;5015681;28;20465;-82
2022/04/07 09:26:40;;;;;;;1.97;1.27;;;10.40;99.90;;;;;;5018645;28;20538;-81
2022/04/07 09:29:11;;;;;;;1.87;1.10;;;10.40;99.90;;;;;;5016541;28;20550;-81
2022/04/07 09:31:39;;;;;;;3.23;0.90;;;10.40;99.90;;;;;;5021367;28;20519;-81
2022/04/07 09:34:07;;;;;;;2.43;0.70;;;10.00;99.90;;;;;;5020997;28;20463;-79
2022/04/07 09:36:35;;;;;;;1.80;0.80;;;9.70;99.90;;;;;;5004546;28;20892;-81
2022/04/07 09:39:02;;;;;;;2.53;0.80;;;9.60;99.90;;;;;;5031496;28;20480;-79
2022/04/07 09:41:31;;;;;;;1.50;0.70;;;9.80;99.90;;;;;;5019708;28;20827;-80
2022/04/07 09:44:01;;;;;;;1.90;1.00;;;9.90;99.90;;;;;;5026911;28;20492;-80
2022/04/07 09:46:33;;;;;;;5.37;1.23;;;9.90;99.90;;;;;;5040340;28;20532;-79
2022/04/07 09:49:05;;;;;;;2.60;1.40;;;9.60;99.90;;;;;;5004900;28;21223;-78
2022/04/07 09:51:40;;;;;;;2.77;1.50;;;9.30;99.90;;;;;;5004675;28;20485;-81
2022/04/07 09:54:10;;;;;;;5.20;2.10;;;9.20;99.90;;;;;;5005846;28;20465;-80
2022/04/07 09:56:37;;;;;;;3.80;2.50;;;8.90;99.90;;;;;;5014053;28;20466;-78
2022/04/07 09:59:07;;;;;;;5.60;2.60;;;8.90;99.90;;;;;;5015768;28;20486;-79
2022/04/07 10:01:34;;;;;;;3.83;2.40;;;8.90;99.90;;;;;;5011146;28;20466;-79
2022/04/07 10:04:03;;;;;;;3.87;2.73;;;8.90;99.90;;;;;;5011287;28;20551;-79
2022/04/07 10:06:32;;;;;;;6.37;2.80;;;9.10;99.90;;;;;;5014081;28;20458;-79
2022/04/07 10:09:01;;;;;;;3.53;2.40;;;9.10;99.90;;;;;;5013103;28;20503;-82
2022/04/07 10:11:31;;;;;;;4.60;3.67;;;9.10;99.90;;;;;;5017653;28;21323;-80
2022/04/07 10:13:58;;;;;;;2.67;1.43;;;9.20;99.90;;;;;;5012518;28;20462;-81
2022/04/07 10:16:27;;;;;;;2.73;1.70;;;9.20;99.90;;;;;;5013131;28;20459;-82
2022/04/07 10:18:58;;;;;;;2.27;1.50;;;9.40;99.90;;;;;;5008237;28;20565;-80
2022/04/07 10:21:39;;;;;;;4.57;1.50;;;9.40;99.90;;;;;;5016725;28;20467;-80
2022/04/07 10:24:25;;;;;;;1.60;1.00;;;10.00;99.90;;;;;;5003398;28;20447;-80
2022/04/07 10:26:52;;;;;;;3.00;1.23;;;10.30;99.90;;;;;;5008961;28;20458;-81
2022/04/07 10:29:22;;;;;;;2.20;1.43;;;10.20;99.90;;;;;;5010746;28;20486;-81
2022/04/07 10:32:19;;;;;;;4.03;1.40;;;10.10;99.90;;;;;;5018014;28;21026;-80
2022/04/07 10:35:04;;;;;;;2.37;1.53;;;10.20;99.90;;;;;;5020468;28;20469;-82
2022/04/07 10:37:40;;;;;;;2.50;0.90;;;10.20;99.90;;;;;;5025429;28;20461;-81
2022/04/07 10:40:34;;;;;;;3.30;1.27;;;10.70;99.90;;;;;;5018343;28;20467;-81
2022/04/07 10:43:26;;;;;;;1.93;1.40;;;11.20;99.90;;;;;;5010127;28;20574;-80
2022/04/07 10:45:53;;;;;;;4.03;1.43;;;11.80;99.90;;;;;;4998386;28;20523;-79
2022/04/07 10:48:28;;;;;;;2.00;1.20;;;12.70;99.90;;;;;;5005863;28;20485;-81
2022/04/07 10:50:57;;;;;;;1.90;1.20;;;14.00;99.90;;;;;;5008604;28;20497;-82
2022/04/07 10:53:28;;;;;;;2.70;1.70;;;15.10;99.90;;;;;;4997586;28;20987;-81
2022/04/07 10:56:06;;;;;;;4.90;1.00;;;15.50;99.90;;;;;;5004150;28;20462;-82
2022/04/07 10:58:46;;;;;;;2.10;1.00;;;16.00;99.90;;;;;;5014513;28;20524;-80
2022/04/07 11:01:51;;;;;;;2.33;1.00;;;17.00;99.90;;;;;;5009026;28;20459;-81
2022/04/07 11:04:41;;;;;;;2.20;1.13;;;16.80;99.90;;;;;;5004243;28;21230;-81
2022/04/07 11:07:15;;;;;;;2.47;1.20;;;16.90;99.90;;;;;;5010977;28;20554;-81
2022/04/07 11:09:44;;;;;;;2.00;1.10;;;17.80;99.90;;;;;;5009620;28;20542;-81
2022/04/07 11:12:12;;;;;;;1.90;1.03;;;18.90;99.90;;;;;;5009406;28;20449;-83
2022/04/07 11:14:39;;;;;;;3.10;0.87;;;21.50;99.90;;;;;;5011957;28;20467;-83
2022/04/07 11:17:09;;;;;;;2.60;1.30;;;23.00;99.90;;;;;;5012332;28;20468;-82
2022/04/07 11:19:52;;;;;;;2.17;0.97;;;22.50;99.90;;;;;;5012185;28;20477;-83
2022/04/07 11:22:22;;;;;;;2.83;0.90;;;22.30;99.90;;;;;;5014720;28;20465;-82
2022/04/07 11:24:53;;;;;;;3.83;1.10;;;21.80;99.90;;;;;;5010338;28;20492;-82
2022/04/07 11:27:35;;;;;;;11.37;5.57;;;20.00;99.90;;;;;;5013396;28;20537;-82
2022/04/07 11:30:06;;;;;;;4.27;1.30;;;18.40;99.90;;;;;;5012808;28;20501;-81
2022/04/07 11:32:33;;;;;;;2.43;1.00;;;17.60;99.90;;;;;;5017649;28;20454;-82
2022/04/07 11:35:14;;;;;;;2.40;1.27;;;18.20;99.90;;;;;;5017838;28;20479;-82
2022/04/07 11:37:41;;;;;;;3.07;1.40;;;18.90;99.90;;;;;;5014345;28;20457;-82
2022/04/07 11:40:09;;;;;;;2.40;1.17;;;19.70;99.90;;;;;;5020478;28;20470;-81
2022/04/07 11:42:36;;;;;;;3.00;1.30;;;20.90;97.30;;;;;;5011699;28;20449;-80
2022/04/07 11:45:04;;;;;;;2.20;1.40;;;22.60;90.10;;;;;;5017978;28;20496;-79
2022/04/07 11:47:33;;;;;;;2.30;1.00;;;23.80;82.70;;;;;;5000887;28;20455;-80
2022/04/07 11:50:00;;;;;;;2.17;1.10;;;24.20;73.50;;;;;;4997581;28;20521;-80
2022/04/07 11:52:33;;;;;;;3.03;1.20;;;24.30;71.10;;;;;;4997234;28;20484;-80
2022/04/07 11:55:01;;;;;;;2.27;1.03;;;26.00;68.20;;;;;;4997610;28;20458;-79
2022/04/07 11:57:29;;;;;;;2.40;1.20;;;25.00;61.20;;;;;;4997901;28;20465;-80
2022/04/07 11:59:57;;;;;;;2.40;1.20;;;23.50;62.30;;;;;;4997208;28;20471;-80
2022/04/07 12:02:24;;;;;;;5.57;1.40;;;19.50;64.20;;;;;;5015601;28;20455;-79
2022/04/07 12:04:56;;;;;;;2.77;1.40;;;17.90;71.80;;;;;;5032261;28;20467;-79
2022/04/07 12:07:23;;;;;;;2.83;1.30;;;16.70;79.30;;;;;;5032680;28;20447;-80
2022/04/07 12:09:51;;;;;;;3.30;1.23;;;16.30;84.30;;;;;;5037039;28;20499;-79
2022/04/07 12:12:18;;;;;;;2.87;1.10;;;15.40;93.70;;;;;;5036259;28;20512;-79
2022/04/07 12:14:46;;;;;;;3.03;0.90;;;15.10;99.90;;;;;;5033472;28;20455;-80
2022/04/07 12:17:13;;;;;;;3.40;1.43;;;15.40;99.90;;;;;;5020420;28;20455;-78
2022/04/07 12:19:44;;;;;;;2.57;1.07;;;15.60;99.90;;;;;;5016349;28;20985;-79
2022/04/07 12:22:11;;;;;;;4.03;1.20;;;17.70;98.20;;;;;;5015927;28;20523;-80
2022/04/07 12:24:37;;;;;;;3.40;1.20;;;18.60;95.40;;;;;;5015216;28;20465;-78
2022/04/07 12:27:08;;;;;;;2.57;1.23;;;18.40;90.60;;;;;;5004221;28;20464;-81
2022/04/07 12:29:35;;;;;;;3.97;1.40;;;16.90;84.80;;;;;;5018428;28;20495;-79
2022/04/07 12:32:06;;;;;;;4.03;1.20;;;16.10;92.90;;;;;;5011539;28;20538;-79
2022/04/07 12:34:33;;;;;;;3.70;1.20;;;15.20;98.60;;;;;;4998144;28;20493;-80
2022/04/07 12:37:00;;;;;;;5.80;1.20;;;14.50;99.90;;;;;;5011088;28;20462;-79
2022/04/07 12:39:31;;;;;;;8.27;1.60;;;13.90;99.90;;;;;;5003557;28;20476;-78
2022/04/07 12:42:04;;;;;;;6.50;1.70;;;12.70;99.90;;;;;;5006866;28;20447;-80
2022/04/07 12:44:38;;;;;;;4.50;1.30;;;11.70;99.90;;;;;;5007953;28;20449;-81
2022/04/07 12:47:14;;;;;;;9.07;2.33;;;10.80;99.90;;;;;;4998442;28;20473;-81
2022/04/07 12:49:41;;;;;;;3.57;1.50;;;10.20;99.90;;;;;;4995126;28;20494;-81
2022/04/07 12:52:11;;;;;;;6.73;1.90;;;10.00;99.90;;;;;;4993829;28;20465;-82
2022/04/07 12:54:39;;;;;;;7.00;2.20;;;10.00;99.90;;;;;;4995162;28;20459;-79
2022/04/07 12:57:13;;;;;;;3.80;1.80;;;10.90;99.90;;;;;;4996214;28;20465;-79
2022/04/07 12:59:53;;;;;;;5.60;2.30;;;10.80;99.90;;;;;;4994828;28;20473;-81